Tortola's Pride — HO-3796 — position and weather

sailwx.info

Track history (hours):
 
Tides and Currents Weather Stations Pressure Air Temp Water Temp Dewpoint Dewpoint Depression Visibility Wind Speed Wind Dir Waves Ship Positions

Tortola's Pride

Last reported at 2015-Mar-04 07:11 UTC. Time now 2015-Mar-06 09:00 UTC.
Position N 18°14' W 064°56'.

Length 49 m; draft 2.8 m.

Type: Cargo ship. MMSI: 355921000.

Date/timePositionNaut miles runAvg speedWind from/ knotsBaromVisibWave heightAir tempDewpointWater temp
2015-Mar-04 07:11N 18°14' W 064°56'6 9.8
2015-Mar-04 06:33N 18°15' W 064°50'11 9.4
2015-Mar-04 05:25N 18°20' W 064°40'  
2015-Mar-01 17:33N 18°23' W 064°38'8 8.3
2015-Mar-01 16:33N 18°22' W 064°47'  
2015-Feb-27 06:29N 18°15' W 064°51'11 9.4
2015-Feb-27 05:17N 18°19' W 064°40'6 0.6
2015-Feb-26 19:15N 18°25' W 064°37'6 8.6
2015-Feb-26 18:33N 18°23' W 064°43'9 8.5
2015-Feb-26 17:32N 18°18' W 064°51'  
2015-Feb-24 06:33N 18°15' W 064°53'11 9.6
2015-Feb-24 05:23N 18°18' W 064°41'  
Track history (hours):
 
Tides and Currents Weather Stations Pressure Air Temp Water Temp Dewpoint Dewpoint Depression Visibility Wind Speed Wind Dir Waves Ship Positions

Tortola's Pride

Last reported at 2015-Mar-04 07:11 UTC. Time now 2015-Mar-06 09:00 UTC.
Position N 18°14' W 064°56'.

Length 49 m; draft 2.8 m.

Type: Cargo ship. MMSI: 355921000.

Date/timePositionNaut miles runAvg speedWind from/ knotsBaromVisibWave heightAir tempDewpointWater temp
2015-Mar-04 07:11N 18°14' W 064°56'6 9.8
2015-Mar-04 06:33N 18°15' W 064°50'11 9.4
2015-Mar-04 05:25N 18°20' W 064°40'  
2015-Mar-01 17:33N 18°23' W 064°38'8 8.3
2015-Mar-01 16:33N 18°22' W 064°47'  
2015-Feb-27 06:29N 18°15' W 064°51'11 9.4
2015-Feb-27 05:17N 18°19' W 064°40'6 0.6
2015-Feb-26 19:15N 18°25' W 064°37'6 8.6
2015-Feb-26 18:33N 18°23' W 064°43'9 8.5
2015-Feb-26 17:32N 18°18' W 064°51'  
2015-Feb-24 06:33N 18°15' W 064°53'11 9.6
2015-Feb-24 05:23N 18°18' W 064°41'  

Dump ship's entire track history